Time;durP1;ratioP1;P1;durP2;ratioP2;P2;SDS_P1;SDS_P2;PMS_P1;PMS_P2;Temp;Humidity;BMP_temperature;BMP_pressure;BME280_temperature;BME280_humidity;BME280_pressure;Samples;Min_cycle;Max_cycle;Signal;HPM_P1;HPM_P2
2022/04/14 00:00:54;;;;;;;6.90;4.50;;;11.80;68.50;;;;;;4995641;28;20034;-73
2022/04/14 00:03:20;;;;;;;7.70;4.13;;;11.90;68.60;;;;;;4986356;28;20038;-72
2022/04/14 00:05:46;;;;;;;7.83;4.33;;;11.90;69.00;;;;;;4994372;28;20113;-72
2022/04/14 00:08:11;;;;;;;6.30;4.22;;;11.80;69.30;;;;;;4986141;28;20149;-72
2022/04/14 00:10:39;;;;;;;8.57;4.77;;;11.80;69.30;;;;;;4993550;28;20030;-72
2022/04/14 00:13:05;;;;;;;6.57;4.13;;;11.80;69.20;;;;;;4998115;28;20505;-72
2022/04/14 00:15:30;;;;;;;11.13;4.33;;;11.70;69.30;;;;;;4982405;28;20034;-72
2022/04/14 00:17:59;;;;;;;7.93;4.40;;;11.70;69.60;;;;;;4998672;28;20034;-72
2022/04/14 00:20:25;;;;;;;6.50;4.47;;;11.60;69.90;;;;;;4990689;28;20030;-73
2022/04/14 00:22:50;;;;;;;7.87;4.43;;;11.70;70.00;;;;;;4998116;28;20025;-72
2022/04/14 00:25:17;;;;;;;7.27;4.10;;;11.60;70.10;;;;;;4998171;28;20018;-72
2022/04/14 00:27:43;;;;;;;7.90;4.50;;;11.60;70.50;;;;;;4995238;28;20022;-72
2022/04/14 00:30:10;;;;;;;9.73;4.47;;;11.60;70.70;;;;;;4997303;28;20037;-72
2022/04/14 00:32:36;;;;;;;6.70;3.92;;;11.60;71.00;;;;;;4980552;28;20104;-72
2022/04/14 00:35:03;;;;;;;9.33;4.53;;;11.50;71.20;;;;;;4997342;28;20705;-72
2022/04/14 00:37:28;;;;;;;;;;;11.50;71.20;;;;;;4993538;28;20065;-73
2022/04/14 00:39:54;;;;;;;10.02;4.15;;;11.50;71.40;;;;;;4995432;28;19955;-72
2022/04/14 00:42:26;;;;;;;7.30;4.20;;;11.40;71.40;;;;;;4997594;28;20033;-72
2022/04/14 00:44:52;;;;;;;6.72;4.18;;;11.50;72.00;;;;;;4980420;28;20018;-72
2022/04/14 00:47:19;;;;;;;7.25;4.10;;;11.40;71.90;;;;;;4999376;28;20487;-72
2022/04/14 00:49:48;;;;;;;8.00;4.20;;;11.40;72.10;;;;;;4977219;28;20825;-72
2022/04/14 00:52:16;;;;;;;7.38;3.95;;;11.40;72.40;;;;;;4980340;28;20034;-72
2022/04/14 00:54:42;;;;;;;7.18;3.80;;;11.40;72.60;;;;;;4992726;28;20018;-72
2022/04/14 00:57:08;;;;;;;9.73;4.07;;;11.40;72.60;;;;;;4998456;28;20036;-72
2022/04/14 00:59:34;;;;;;;9.10;4.07;;;11.40;73.20;;;;;;4993786;28;20029;-72
2022/04/14 01:02:01;;;;;;;5.97;3.40;;;11.30;73.10;;;;;;4983460;28;20426;-72
2022/04/14 01:04:27;;;;;;;5.93;4.00;;;11.30;73.50;;;;;;4990372;28;20030;-72
2022/04/14 01:06:54;;;;;;;9.07;4.10;;;11.20;73.80;;;;;;4980467;28;20024;-72
2022/04/14 01:09:20;;;;;;;;;;;11.20;74.00;;;;;;4980649;28;20030;-72
2022/04/14 01:11:50;;;;;;;6.63;3.75;;;11.20;74.50;;;;;;4993762;28;19955;-72
2022/04/14 01:14:49;;;;;;;7.65;3.70;;;11.20;74.60;;;;;;4998107;28;20032;-72
2022/04/14 01:17:14;;;;;;;;;;;11.10;74.80;;;;;;4955027;28;20057;-72
2022/04/14 01:19:40;;;;;;;7.13;4.00;;;11.10;76.00;;;;;;4995626;28;19906;-72
2022/04/14 01:22:15;;;;;;;6.27;3.73;;;11.10;75.50;;;;;;4976749;28;20088;-72
2022/04/14 01:24:41;;;;;;;7.22;4.00;;;11.00;75.60;;;;;;4993435;28;20024;-73
2022/04/14 01:27:07;;;;;;;6.93;3.60;;;11.00;76.00;;;;;;4982378;28;20018;-72
2022/04/14 01:29:34;;;;;;;5.97;3.42;;;11.00;76.40;;;;;;4980157;28;20044;-72
2022/04/14 01:32:02;;;;;;;;;;;11.00;77.00;;;;;;4997464;28;20033;-72
2022/04/14 01:34:30;;;;;;;8.73;3.40;;;11.00;77.40;;;;;;4975454;28;19920;-72
2022/04/14 01:37:00;;;;;;;8.00;3.90;;;11.00;77.80;;;;;;4997480;28;20014;-71
2022/04/14 01:39:28;;;;;;;7.25;3.75;;;11.00;77.90;;;;;;4993259;28;20100;-72
2022/04/14 01:41:54;;;;;;;6.32;3.83;;;10.90;78.20;;;;;;4996329;28;20033;-72
2022/04/14 01:44:20;;;;;;;5.55;3.95;;;10.80;77.40;;;;;;4979632;28;20014;-72
2022/04/14 01:46:49;;;;;;;6.75;4.10;;;10.80;77.80;;;;;;4992908;28;20026;-72
2022/04/14 01:49:15;;;;;;;6.20;3.83;;;10.80;77.90;;;;;;4977063;28;20447;-72
2022/04/14 01:51:41;;;;;;;5.17;3.50;;;10.80;78.30;;;;;;4974348;28;20026;-72
2022/04/14 01:54:07;;;;;;;5.87;4.00;;;10.80;77.70;;;;;;4975642;28;20475;-72
2022/04/14 01:56:34;;;;;;;5.68;3.78;;;10.90;78.90;;;;;;4996722;28;20422;-73
2022/04/14 01:59:02;;;;;;;5.22;3.65;;;10.80;78.80;;;;;;4992579;28;20038;-73
2022/04/14 02:01:29;;;;;;;5.70;3.30;;;10.80;78.90;;;;;;4995421;28;20087;-73
2022/04/14 02:03:56;;;;;;;;;;;10.80;78.70;;;;;;4995944;28;20032;-72
2022/04/14 02:06:22;;;;;;;6.72;3.80;;;10.80;79.50;;;;;;4988977;28;19909;-72
2022/04/14 02:08:48;;;;;;;8.47;3.70;;;10.70;79.40;;;;;;4979204;28;20097;-72
2022/04/14 02:11:13;;;;;;;7.03;3.47;;;10.70;79.30;;;;;;4974590;28;20727;-73
2022/04/14 02:13:40;;;;;;;6.63;3.60;;;10.70;79.40;;;;;;4996635;28;20022;-72
2022/04/14 02:16:07;;;;;;;;;;;10.60;79.40;;;;;;4974887;28;20097;-72
2022/04/14 02:18:34;;;;;;;4.75;3.38;;;10.60;79.90;;;;;;4981373;28;20040;-72
2022/04/14 02:21:01;;;;;;;8.35;3.70;;;10.60;80.50;;;;;;4991682;28;20506;-73
2022/04/14 02:23:27;;;;;;;5.30;3.67;;;10.60;79.90;;;;;;4973217;28;20886;-72
2022/04/14 02:25:54;;;;;;;6.00;3.78;;;10.60;80.50;;;;;;4986560;28;20120;-73
2022/04/14 02:28:20;;;;;;;5.88;3.42;;;10.60;80.30;;;;;;4977594;28;20498;-72
2022/04/14 02:30:46;;;;;;;7.53;3.20;;;10.50;81.20;;;;;;4974033;28;20026;-73
2022/04/14 02:33:11;;;;;;;8.68;3.85;;;10.60;80.50;;;;;;4992431;28;20061;-72
2022/04/14 02:35:37;;;;;;;6.30;3.43;;;10.60;79.30;;;;;;4973975;28;20531;-72
2022/04/14 02:38:03;;;;;;;7.27;3.40;;;10.60;79.30;;;;;;4988929;28;20117;-73
2022/04/14 02:40:30;;;;;;;7.05;3.35;;;10.60;79.30;;;;;;4979470;28;20033;-73
2022/04/14 02:42:57;;;;;;;;;;;10.70;79.00;;;;;;4977518;28;20032;-72
2022/04/14 02:45:24;;;;;;;5.75;3.90;;;10.60;79.10;;;;;;4973512;28;19912;-73
2022/04/14 02:47:51;;;;;;;5.38;3.40;;;10.70;79.10;;;;;;4995249;28;20092;-73
2022/04/14 02:50:19;;;;;;;5.40;3.47;;;10.70;78.90;;;;;;4992004;28;20010;-72
2022/04/14 02:52:45;;;;;;;5.10;3.30;;;10.60;78.90;;;;;;4995729;28;20113;-72
2022/04/14 02:55:11;;;;;;;4.80;3.60;;;10.60;78.90;;;;;;4991607;28;20109;-72
2022/04/14 02:57:37;;;;;;;6.43;3.20;;;10.50;79.10;;;;;;4996613;28;20719;-72
2022/04/14 03:00:10;;;;;;;5.87;3.03;;;10.50;79.70;;;;;;4976111;28;20109;-72
2022/04/14 03:02:37;;;;;;;7.82;3.45;;;10.50;80.00;;;;;;4995301;28;20026;-73
2022/04/14 03:05:03;;;;;;;9.05;3.45;;;10.50;80.50;;;;;;4994631;28;20022;-72
2022/04/14 03:07:30;;;;;;;6.22;3.75;;;10.50;80.00;;;;;;4990209;28;20042;-72
2022/04/14 03:09:57;;;;;;;4.30;3.15;;;10.50;81.00;;;;;;4998965;28;20517;-72
2022/04/14 03:12:24;;;;;;;5.53;3.33;;;10.50;81.30;;;;;;4997040;28;20029;-71
2022/04/14 03:14:50;;;;;;;7.60;3.60;;;10.50;81.30;;;;;;5000338;28;20029;-72
2022/04/14 03:17:16;;;;;;;5.38;3.63;;;10.40;81.70;;;;;;4979103;28;20029;-72
2022/04/14 03:19:42;;;;;;;4.25;3.15;;;10.50;80.90;;;;;;4983233;28;20018;-72
2022/04/14 03:22:08;;;;;;;6.90;3.53;;;10.40;81.00;;;;;;4992136;28;20037;-72
2022/04/14 03:24:34;;;;;;;4.78;3.28;;;10.40;79.70;;;;;;5000016;28;20107;-73
2022/04/14 03:27:01;;;;;;;5.00;3.08;;;10.30;80.00;;;;;;4996076;28;20057;-72
2022/04/14 03:29:32;;;;;;;7.97;3.05;;;10.40;79.70;;;;;;4986813;28;20042;-72
2022/04/14 03:31:58;;;;;;;6.25;3.95;;;10.30;79.70;;;;;;4999393;28;20116;-72
2022/04/14 03:34:25;;;;;;;6.78;3.10;;;10.40;79.50;;;;;;4997009;28;20029;-73
2022/04/14 03:36:52;;;;;;;4.55;3.15;;;10.40;80.00;;;;;;4982837;28;20053;-72
2022/04/14 03:39:17;;;;;;;5.63;3.03;;;10.40;80.10;;;;;;4995318;28;20648;-73
2022/04/14 03:41:43;;;;;;;4.47;3.40;;;10.40;80.20;;;;;;4999031;28;20049;-72
2022/04/14 03:44:09;;;;;;;5.05;3.80;;;10.40;81.00;;;;;;4995566;28;20037;-72
2022/04/14 03:46:35;;;;;;;5.67;3.07;;;10.40;79.40;;;;;;4999641;28;20030;-71
2022/04/14 03:49:01;;;;;;;4.77;2.87;;;10.30;80.70;;;;;;4999468;28;20315;-73
2022/04/14 03:51:28;;;;;;;7.60;3.30;;;10.30;81.30;;;;;;4993597;28;20018;-72
2022/04/14 03:53:55;;;;;;;8.00;3.70;;;10.30;81.80;;;;;;4999263;28;20014;-72
2022/04/14 03:56:21;;;;;;;6.40;3.38;;;10.30;81.00;;;;;;4995685;28;20307;-72
2022/04/14 03:58:46;;;;;;;6.27;3.73;;;10.30;82.40;;;;;;4999650;28;20018;-72
2022/04/14 04:01:12;;;;;;;6.47;3.60;;;10.20;81.60;;;;;;4993928;28;20474;-72
2022/04/14 04:03:38;;;;;;;7.77;4.70;;;10.20;82.90;;;;;;4985293;28;20031;-72
2022/04/14 04:06:03;;;;;;;7.07;3.43;;;10.30;83.00;;;;;;4992980;28;20068;-72
2022/04/14 04:08:30;;;;;;;5.13;3.20;;;10.20;81.30;;;;;;4998572;28;20033;-73
2022/04/14 04:10:56;;;;;;;;;;;10.20;81.20;;;;;;4999021;28;20673;-72
2022/04/14 04:13:22;;;;;;;6.25;3.35;;;10.10;81.00;;;;;;4995025;28;19946;-72
2022/04/14 04:15:48;;;;;;;5.40;3.65;;;10.10;80.20;;;;;;4998180;28;20037;-72
2022/04/14 04:18:14;;;;;;;7.37;3.73;;;10.10;81.40;;;;;;4995198;28;20030;-72
2022/04/14 04:20:40;;;;;;;8.07;3.70;;;10.20;81.40;;;;;;4976729;28;20710;-72
2022/04/14 04:23:06;;;;;;;4.28;3.40;;;10.20;81.20;;;;;;4994686;28;20411;-72
2022/04/14 04:25:32;;;;;;;5.20;3.40;;;10.20;79.90;;;;;;4980249;28;20061;-72
2022/04/14 04:28:00;;;;;;;5.37;3.20;;;10.10;80.50;;;;;;4987164;28;20029;-72
2022/04/14 04:30:27;;;;;;;5.80;3.05;;;10.20;79.90;;;;;;4993996;28;20026;-72
2022/04/14 04:32:52;;;;;;;7.00;3.40;;;10.20;79.20;;;;;;4978268;28;20021;-72
2022/04/14 04:35:18;;;;;;;4.23;3.20;;;10.30;78.40;;;;;;4983994;28;20032;-72
2022/04/14 04:37:43;;;;;;;5.10;3.20;;;10.40;78.70;;;;;;4997727;28;20030;-72
2022/04/14 04:40:10;;;;;;;4.60;3.27;;;10.40;78.70;;;;;;4993283;28;20498;-72
2022/04/14 04:42:35;;;;;;;5.07;3.25;;;10.50;78.40;;;;;;4980202;28;20382;-72
2022/04/14 04:45:01;;;;;;;6.10;3.67;;;10.60;77.60;;;;;;4998278;28;20026;-72
2022/04/14 04:47:28;;;;;;;4.53;3.57;;;10.70;77.50;;;;;;4993794;28;20018;-73
2022/04/14 04:49:54;;;;;;;5.43;3.38;;;10.80;77.60;;;;;;4998245;28;20029;-72
2022/04/14 04:52:20;;;;;;;9.10;3.97;;;11.00;76.50;;;;;;4971457;28;20653;-71
2022/04/14 04:54:48;;;;;;;8.30;3.20;;;11.10;75.80;;;;;;4996542;28;20539;-72
2022/04/14 04:57:15;;;;;;;4.93;3.45;;;11.20;75.90;;;;;;4993928;28;20068;-72
2022/04/14 04:59:40;;;;;;;4.25;3.30;;;11.30;75.60;;;;;;4975855;28;20033;-72
2022/04/14 05:02:08;;;;;;;5.23;3.17;;;11.30;74.70;;;;;;4973450;28;20030;-72
2022/04/14 05:04:34;;;;;;;5.65;2.70;;;11.40;74.40;;;;;;4997317;28;20026;-71
2022/04/14 05:06:59;;;;;;;7.57;3.50;;;11.70;74.10;;;;;;4979914;28;20561;-72
2022/04/14 05:09:26;;;;;;;7.23;3.30;;;12.20;72.60;;;;;;4993146;28;20551;-72
2022/04/14 05:11:55;;;;;;;;;;;12.50;71.10;;;;;;4997349;28;20026;-71
2022/04/14 05:14:20;;;;;;;7.88;3.25;;;13.00;70.10;;;;;;4979685;28;19909;-72
2022/04/14 05:16:48;;;;;;;7.20;3.63;;;13.60;67.30;;;;;;4991582;28;20014;-72
2022/04/14 05:19:15;;;;;;;5.03;2.85;;;13.80;66.60;;;;;;4974491;28;21455;-72
2022/04/14 05:21:41;;;;;;;8.43;3.13;;;13.80;66.40;;;;;;4995884;28;20026;-71
2022/04/14 05:24:07;;;;;;;4.80;3.20;;;13.50;66.50;;;;;;4973754;28;20554;-72
2022/04/14 05:26:33;;;;;;;9.27;3.40;;;13.20;67.30;;;;;;4996596;28;20037;-72
2022/04/14 05:28:59;;;;;;;6.18;3.00;;;12.90;67.30;;;;;;4985672;28;20091;-72
2022/04/14 05:31:26;;;;;;;6.97;3.53;;;13.00;67.80;;;;;;4976333;28;20019;-71
2022/04/14 05:33:52;;;;;;;5.90;3.20;;;13.20;67.20;;;;;;4993799;28;20466;-72
2022/04/14 05:36:19;;;;;;;7.03;3.10;;;13.60;66.40;;;;;;4992944;28;20029;-72
2022/04/14 05:38:44;;;;;;;9.82;4.15;;;14.10;64.30;;;;;;4984797;28;20112;-72
2022/04/14 05:41:11;;;;;;;4.70;3.15;;;15.10;61.80;;;;;;4970271;28;20046;-72
2022/04/14 05:43:37;;;;;;;6.15;3.30;;;16.20;59.60;;;;;;4996880;28;20076;-72
2022/04/14 05:46:03;;;;;;;6.20;3.20;;;17.00;56.80;;;;;;4979180;28;20045;-72
2022/04/14 05:48:29;;;;;;;7.32;3.42;;;17.70;54.80;;;;;;4999352;28;20037;-72
2022/04/14 05:50:55;;;;;;;4.30;3.35;;;18.30;53.30;;;;;;4991493;28;20022;-72
2022/04/14 05:53:29;;;;;;;4.82;3.38;;;18.20;52.00;;;;;;4997957;28;20025;-72
2022/04/14 05:55:58;;;;;;;11.23;3.42;;;17.80;52.50;;;;;;4991075;28;20109;-72
2022/04/14 05:58:23;;;;;;;4.75;3.25;;;18.50;51.90;;;;;;4994217;28;20570;-72
2022/04/14 06:00:49;;;;;;;4.05;2.80;;;18.50;50.90;;;;;;4986491;28;20085;-72
2022/04/14 06:03:15;;;;;;;5.63;2.90;;;19.80;49.60;;;;;;4978475;28;20033;-72
2022/04/14 06:05:42;;;;;;;9.35;3.58;;;20.40;48.50;;;;;;4979622;28;20022;-73
2022/04/14 06:08:08;;;;;;;7.15;3.50;;;21.20;45.90;;;;;;4996760;28;20109;-72
2022/04/14 06:10:35;;;;;;;5.30;2.83;;;21.00;45.20;;;;;;4977767;28;20430;-72
2022/04/14 06:13:01;;;;;;;10.45;3.42;;;21.20;44.80;;;;;;4991952;28;20109;-72
2022/04/14 06:15:27;;;;;;;5.00;3.05;;;21.60;44.50;;;;;;4997040;28;20097;-72
2022/04/14 06:17:53;;;;;;;7.65;3.38;;;21.80;43.10;;;;;;4995256;28;20483;-73
2022/04/14 06:20:20;;;;;;;7.20;3.22;;;22.00;42.50;;;;;;4978037;28;20034;-72
2022/04/14 06:22:47;;;;;;;5.05;3.05;;;21.90;43.00;;;;;;4993128;28;20033;-72
2022/04/14 06:25:16;;;;;;;5.78;3.30;;;21.90;42.30;;;;;;4996313;28;20030;-72
2022/04/14 06:27:44;;;;;;;5.38;3.20;;;22.20;42.50;;;;;;4971316;28;20080;-73
2022/04/14 06:30:11;;;;;;;4.78;3.10;;;23.50;40.50;;;;;;4977622;28;20061;-73
2022/04/14 06:32:37;;;;;;;5.90;2.83;;;23.60;40.20;;;;;;4981031;28;21076;-73
2022/04/14 06:35:03;;;;;;;;;;;24.30;39.80;;;;;;4990994;28;20033;-74
2022/04/14 06:37:29;;;;;;;5.55;3.25;;;24.50;38.40;;;;;;4996163;28;19917;-73
2022/04/14 06:39:54;;;;;;;;;;;23.00;39.00;;;;;;4998195;28;20025;-73
2022/04/14 06:42:23;;;;;;;6.50;3.20;;;22.60;40.40;;;;;;5002997;28;19913;-72
2022/04/14 06:44:49;;;;;;;3.85;3.00;;;22.80;40.70;;;;;;4998507;28;20018;-72
2022/04/14 06:47:16;;;;;;;;;;;23.40;39.40;;;;;;5002808;28;20514;-72
2022/04/14 06:49:41;;;;;;;5.67;3.30;;;23.40;39.70;;;;;;5000520;28;19932;-72
2022/04/14 06:52:07;;;;;;;;;;;24.80;38.90;;;;;;4999107;28;21518;-74
2022/04/14 06:54:34;;;;;;;4.38;2.90;;;24.90;37.50;;;;;;5001670;28;19906;-72
2022/04/14 06:56:59;;;;;;;6.78;3.22;;;24.00;38.10;;;;;;4986136;28;20621;-72
2022/04/14 06:59:25;;;;;;;;;;;24.30;38.80;;;;;;5003681;28;20026;-75
2022/04/14 07:01:51;;;;;;;7.57;3.20;;;25.30;38.10;;;;;;4997912;28;19913;-75
2022/04/14 07:04:20;;;;;;;4.38;3.30;;;26.10;37.80;;;;;;4979801;28;20028;-76
2022/04/14 07:06:46;;;;;;;4.88;3.03;;;25.90;37.90;;;;;;4996183;28;20065;-75
2022/04/14 07:09:13;;;;;;;5.22;3.40;;;24.50;36.90;;;;;;5000582;28;20022;-75
2022/04/14 07:11:39;;;;;;;6.72;3.50;;;24.20;38.60;;;;;;5001361;28;20018;-75
2022/04/14 07:14:04;;;;;;;3.75;2.88;;;25.60;37.90;;;;;;4996721;28;20029;-72
2022/04/14 07:16:30;;;;;;;8.35;3.33;;;26.50;37.20;;;;;;5002513;28;20048;-72
2022/04/14 07:18:57;;;;;;;3.85;2.97;;;26.50;36.50;;;;;;4987559;28;20010;-74
2022/04/14 07:21:22;;;;;;;6.50;3.28;;;24.60;37.50;;;;;;5000538;28;20471;-74
2022/04/14 07:23:48;;;;;;;5.32;3.42;;;24.70;38.50;;;;;;4997703;28;20026;-75
2022/04/14 07:26:13;;;;;;;;;;;24.10;38.00;;;;;;4998784;28;20026;-74
2022/04/14 07:28:39;;;;;;;6.35;3.10;;;23.20;39.50;;;;;;5001433;28;19960;-74
2022/04/14 07:31:05;;;;;;;;;;;22.80;40.40;;;;;;4997400;28;20021;-74
2022/04/14 07:33:34;;;;;;;6.63;2.85;;;24.30;39.20;;;;;;4980878;28;19951;-74
2022/04/14 07:36:00;;;;;;;3.63;2.58;;;24.70;38.30;;;;;;4997205;28;20022;-73
2022/04/14 07:38:25;;;;;;;;;;;24.60;37.80;;;;;;4988760;28;20052;-71
2022/04/14 07:40:52;;;;;;;9.55;3.25;;;25.20;37.30;;;;;;4980340;28;19963;-72
2022/04/14 07:43:20;;;;;;;6.75;3.00;;;25.50;37.30;;;;;;5002065;28;20022;-71
2022/04/14 07:45:45;;;;;;;7.50;2.90;;;25.90;36.60;;;;;;5000039;28;20361;-75
2022/04/14 07:48:11;;;;;;;6.22;3.22;;;26.30;36.80;;;;;;5001879;28;20033;-74
2022/04/14 07:50:37;;;;;;;3.95;2.90;;;26.60;36.80;;;;;;4997800;28;20036;-74
2022/04/14 07:53:03;;;;;;;5.75;3.17;;;26.50;36.60;;;;;;4993740;28;20030;-74
2022/04/14 07:55:33;;;;;;;3.17;2.70;;;26.80;36.10;;;;;;4995957;28;20459;-73
2022/04/14 07:58:07;;;;;;;5.30;3.00;;;24.90;37.40;;;;;;4991535;28;20483;-73
2022/04/14 08:00:34;;;;;;;5.30;2.95;;;25.10;37.50;;;;;;4996828;28;20049;-74
2022/04/14 08:03:02;;;;;;;4.38;2.85;;;25.00;37.90;;;;;;4990193;28;20034;-74
2022/04/14 08:05:36;;;;;;;7.45;3.35;;;24.50;38.20;;;;;;4998680;28;20014;-72
2022/04/14 08:08:11;;;;;;;7.15;3.25;;;25.00;38.10;;;;;;4993507;28;20025;-74
2022/04/14 08:10:38;;;;;;;6.70;4.15;;;24.90;37.90;;;;;;4996920;28;20026;-74
2022/04/14 08:13:04;;;;;;;5.78;3.28;;;24.70;38.50;;;;;;4993397;28;20394;-72
2022/04/14 08:15:31;;;;;;;5.15;3.30;;;24.10;39.50;;;;;;4996257;28;20037;-71
2022/04/14 08:17:59;;;;;;;6.40;3.67;;;23.70;39.60;;;;;;4996415;28;20021;-72
2022/04/14 08:20:25;;;;;;;10.95;3.40;;;25.40;39.00;;;;;;4979444;28;20022;-71
2022/04/14 08:22:54;;;;;;;3.63;2.78;;;25.50;37.30;;;;;;4993690;28;20028;-73
2022/04/14 08:25:24;;;;;;;4.88;2.78;;;26.50;37.20;;;;;;4997726;28;20050;-72
2022/04/14 08:27:51;;;;;;;7.82;2.90;;;28.50;36.30;;;;;;4973705;28;20018;-72
2022/04/14 08:30:18;;;;;;;6.93;3.50;;;29.20;35.60;;;;;;4995919;28;20022;-72
2022/04/14 08:32:46;;;;;;;6.78;2.80;;;29.90;34.20;;;;;;4998016;28;20033;-72
2022/04/14 08:35:12;;;;;;;5.45;3.70;;;28.00;34.80;;;;;;4982500;28;20033;-73
2022/04/14 08:37:42;;;;;;;3.88;2.83;;;26.20;36.30;;;;;;4996925;28;20026;-73
2022/04/14 08:40:10;;;;;;;6.63;2.95;;;27.20;37.80;;;;;;4992938;28;20022;-74
2022/04/14 08:42:39;;;;;;;5.30;2.67;;;28.60;35.50;;;;;;4995579;28;20029;-74
2022/04/14 08:45:08;;;;;;;6.03;3.03;;;29.60;35.10;;;;;;4991419;28;20018;-74
2022/04/14 08:47:39;;;;;;;4.82;3.20;;;30.00;34.20;;;;;;4984173;28;20025;-74
2022/04/14 08:50:07;;;;;;;6.38;2.65;;;29.60;33.50;;;;;;4973854;28;20018;-73
2022/04/14 08:52:34;;;;;;;5.85;2.83;;;28.50;35.10;;;;;;4985261;28;20145;-74
2022/04/14 08:55:06;;;;;;;7.35;3.03;;;29.10;34.50;;;;;;4992401;28;20526;-74
2022/04/14 08:57:32;;;;;;;6.10;3.25;;;29.90;34.40;;;;;;4996002;28;20022;-73
2022/04/14 08:59:59;;;;;;;3.97;2.95;;;31.10;33.90;;;;;;4989996;28;20034;-74
2022/04/14 09:02:26;;;;;;;5.60;2.55;;;31.40;32.50;;;;;;4995200;28;20460;-73
2022/04/14 09:04:52;;;;;;;6.32;2.95;;;30.10;33.50;;;;;;4993214;28;20402;-73
2022/04/14 09:07:18;;;;;;;8.13;3.03;;;29.80;33.70;;;;;;4985297;28;20052;-73
2022/04/14 09:09:44;;;;;;;8.63;2.88;;;28.70;33.90;;;;;;4993865;28;20029;-74
2022/04/14 09:12:12;;;;;;;5.05;2.83;;;27.80;34.90;;;;;;4992165;28;20085;-74
2022/04/14 09:14:38;;;;;;;9.80;3.42;;;27.70;35.70;;;;;;4995089;28;20021;-73
2022/04/14 09:17:04;;;;;;;4.07;2.78;;;25.90;36.00;;;;;;4990683;28;20041;-73
2022/04/14 09:19:31;;;;;;;6.15;2.90;;;25.60;37.00;;;;;;4982732;28;20089;-73
2022/04/14 09:22:04;;;;;;;6.03;3.53;;;25.60;37.30;;;;;;4967780;28;20045;-73
2022/04/14 09:24:47;;;;;;;5.65;3.00;;;25.90;37.70;;;;;;4995500;28;20446;-73
2022/04/14 09:27:27;;;;;;;8.13;3.15;;;27.60;36.70;;;;;;4992446;28;21587;-73
2022/04/14 09:29:56;;;;;;;4.40;3.40;;;28.20;35.40;;;;;;4968226;28;20451;-73
2022/04/14 09:32:42;;;;;;;11.75;3.00;;;27.50;35.90;;;;;;4992253;28;20686;-73
2022/04/14 09:35:19;;;;;;;5.43;2.70;;;27.20;35.90;;;;;;4970326;28;21779;-73
2022/04/14 09:37:46;;;;;;;4.55;2.78;;;26.70;36.40;;;;;;4997245;28;20068;-73
2022/04/14 09:40:13;;;;;;;5.43;2.97;;;26.50;36.60;;;;;;4989755;28;20539;-73
2022/04/14 09:42:43;;;;;;;6.00;2.95;;;26.90;36.50;;;;;;4995322;28;20523;-73
2022/04/14 09:45:26;;;;;;;3.70;2.60;;;27.60;36.30;;;;;;4991254;28;20029;-73
2022/04/14 09:47:53;;;;;;;5.78;2.63;;;27.50;36.10;;;;;;4994337;28;20029;-73
2022/04/14 09:50:43;;;;;;;8.65;2.90;;;27.40;35.70;;;;;;4995137;28;20025;-71
2022/04/14 09:53:12;;;;;;;5.78;3.17;;;28.50;35.00;;;;;;4969201;28;20040;-71
2022/04/14 09:55:42;;;;;;;6.47;3.35;;;27.90;35.80;;;;;;4993451;28;20033;-71
2022/04/14 09:58:11;;;;;;;6.38;3.20;;;27.80;35.60;;;;;;4990546;28;20738;-71
2022/04/14 10:00:37;;;;;;;3.67;2.53;;;27.60;36.10;;;;;;4993478;28;20116;-73
2022/04/14 10:03:21;;;;;;;3.92;2.72;;;26.60;36.60;;;;;;4991383;28;20064;-73
2022/04/14 10:05:49;;;;;;;5.47;2.70;;;27.20;36.60;;;;;;4993455;28;20017;-71
2022/04/14 10:08:15;;;;;;;5.28;3.13;;;26.60;36.90;;;;;;4990456;28;20108;-71
2022/04/14 10:10:42;;;;;;;6.28;3.00;;;27.20;36.20;;;;;;4992841;28;20379;-71
2022/04/14 10:13:11;;;;;;;5.38;2.63;;;27.40;36.30;;;;;;4988986;28;20253;-71
2022/04/14 10:15:39;;;;;;;4.70;2.92;;;27.70;36.90;;;;;;4995819;28;20022;-71
2022/04/14 10:18:10;;;;;;;4.65;2.90;;;28.30;35.60;;;;;;4993163;28;20474;-71
2022/04/14 10:20:40;;;;;;;3.80;2.58;;;28.40;35.50;;;;;;4992539;28;20029;-71
2022/04/14 10:23:08;;;;;;;5.82;2.55;;;28.50;34.70;;;;;;4991002;28;20032;-71
2022/04/14 10:25:37;;;;;;;6.70;2.78;;;28.00;35.60;;;;;;4978797;28;20356;-71
2022/04/14 10:28:08;;;;;;;5.45;2.85;;;26.50;36.00;;;;;;4989684;28;20028;-73
2022/04/14 10:30:33;;;;;;;6.05;2.97;;;26.80;36.40;;;;;;4991115;28;20069;-73
2022/04/14 10:33:01;;;;;;;5.32;2.75;;;25.30;36.80;;;;;;4990475;28;20022;-73
2022/04/14 10:35:28;;;;;;;7.95;2.83;;;24.40;38.60;;;;;;4993410;28;20030;-73
2022/04/14 10:38:06;;;;;;;5.20;2.67;;;25.10;38.30;;;;;;4976944;28;20069;-73
2022/04/14 10:40:33;;;;;;;4.50;2.60;;;25.80;37.80;;;;;;4992543;28;20026;-72
2022/04/14 10:43:01;;;;;;;4.22;2.85;;;25.90;37.20;;;;;;4989919;28;20026;-73
2022/04/14 10:45:27;;;;;;;3.95;2.92;;;25.90;36.70;;;;;;4994314;28;20022;-71
2022/04/14 10:47:58;;;;;;;6.07;2.55;;;26.20;37.10;;;;;;4995327;28;20021;-73
2022/04/14 10:50:25;;;;;;;6.20;2.75;;;25.80;36.30;;;;;;4970376;28;20153;-73
2022/04/14 10:53:21;;;;;;;3.17;2.60;;;25.40;38.00;;;;;;4994396;28;20064;-73
2022/04/14 10:55:50;;;;;;;5.72;2.65;;;25.10;38.20;;;;;;4977465;28;20042;-73
2022/04/14 10:58:38;;;;;;;3.85;2.50;;;25.50;37.40;;;;;;4990316;28;20341;-72
2022/04/14 11:01:05;;;;;;;7.78;2.85;;;25.10;38.70;;;;;;4988896;28;20110;-73
2022/04/14 11:03:53;;;;;;;8.32;2.67;;;25.10;37.60;;;;;;4981952;28;20030;-72
2022/04/14 11:06:42;;;;;;;5.40;2.95;;;24.50;39.30;;;;;;4992439;28;20060;-73
2022/04/14 11:09:08;;;;;;;10.88;4.43;;;24.50;38.60;;;;;;4978049;28;20551;-72
2022/04/14 11:11:59;;;;;;;3.65;2.80;;;24.30;38.80;;;;;;4993228;28;20434;-73
2022/04/14 11:14:25;;;;;;;7.30;3.03;;;24.30;39.00;;;;;;4995473;28;20052;-73
2022/04/14 11:16:51;;;;;;;6.13;2.70;;;24.10;39.30;;;;;;4980923;28;20390;-72
2022/04/14 11:19:24;;;;;;;4.97;2.95;;;23.70;39.30;;;;;;4993859;28;20420;-73
2022/04/14 11:22:02;;;;;;;7.63;2.65;;;23.40;39.70;;;;;;4973179;28;20021;-73
2022/04/14 11:24:37;;;;;;;5.63;2.75;;;23.10;40.20;;;;;;4972655;28;20637;-72
2022/04/14 11:27:09;;;;;;;5.32;2.53;;;23.00;40.30;;;;;;4979941;28;20026;-72
2022/04/14 11:29:35;;;;;;;6.75;3.33;;;23.20;40.80;;;;;;4985396;28;20014;-72
2022/04/14 11:32:01;;;;;;;3.67;2.70;;;23.50;40.30;;;;;;4990767;28;20026;-73
2022/04/14 11:34:34;;;;;;;4.75;2.70;;;23.60;40.50;;;;;;4974317;28;20030;-72
2022/04/14 11:37:01;;;;;;;3.47;2.40;;;23.60;40.50;;;;;;4970380;28;20029;-73
2022/04/14 11:39:28;;;;;;;10.18;2.78;;;23.50;40.40;;;;;;4975787;28;20025;-73
2022/04/14 11:41:55;;;;;;;3.97;2.70;;;23.70;40.40;;;;;;4993512;28;20076;-73
2022/04/14 11:44:22;;;;;;;7.80;2.67;;;23.40;40.70;;;;;;4994638;28;20018;-73
2022/04/14 11:46:53;;;;;;;7.38;2.90;;;23.20;41.10;;;;;;4978831;28;20105;-71
2022/04/14 11:49:30;;;;;;;3.97;2.67;;;22.60;41.00;;;;;;4976782;28;20176;-69
2022/04/14 11:51:58;;;;;;;8.57;4.43;;;22.50;41.90;;;;;;4993173;28;20026;-69
2022/04/14 11:54:46;;;;;;;3.67;2.80;;;22.60;41.50;;;;;;4994567;28;20092;-71
2022/04/14 11:57:18;;;;;;;5.18;2.70;;;22.40;42.70;;;;;;4989335;28;20037;-71
2022/04/14 11:59:48;;;;;;;6.85;3.08;;;22.60;41.80;;;;;;4996506;28;20041;-71
2022/04/14 12:02:22;;;;;;;4.15;2.92;;;22.70;41.90;;;;;;4992500;28;20077;-71
2022/04/14 12:04:50;;;;;;;4.20;2.50;;;22.70;42.00;;;;;;4996427;28;20010;-71
2022/04/14 12:07:17;;;;;;;7.75;3.00;;;22.70;42.00;;;;;;4992577;28;20029;-71
2022/04/14 12:09:43;;;;;;;6.35;2.75;;;22.70;42.10;;;;;;4995541;28;20061;-71
2022/04/14 12:12:19;;;;;;;8.32;2.80;;;22.50;42.10;;;;;;4978090;28;20044;-71
2022/04/14 12:14:47;;;;;;;4.90;3.15;;;22.40;42.40;;;;;;4975833;28;20057;-71
2022/04/14 12:17:16;;;;;;;3.83;2.70;;;22.70;42.80;;;;;;4977158;28;20041;-69
2022/04/14 12:19:46;;;;;;;4.97;2.38;;;22.60;42.20;;;;;;4998346;28;20025;-71
2022/04/14 12:22:14;;;;;;;4.18;2.90;;;22.70;42.20;;;;;;4993006;28;20160;-70
2022/04/14 12:24:50;;;;;;;5.85;2.90;;;22.60;42.40;;;;;;4995462;28;20379;-71
2022/04/14 12:27:23;;;;;;;6.03;3.13;;;22.50;42.50;;;;;;4991881;28;20542;-70
2022/04/14 12:29:51;;;;;;;3.58;2.80;;;22.60;42.60;;;;;;4979316;28;20035;-70
2022/04/14 12:32:17;;;;;;;6.65;3.03;;;23.00;42.10;;;;;;4991571;28;20115;-70
2022/04/14 12:34:44;;;;;;;4.07;2.80;;;23.10;42.90;;;;;;4996747;28;20121;-70
2022/04/14 12:37:18;;;;;;;6.22;2.85;;;23.00;42.10;;;;;;4991062;28;20111;-70
2022/04/14 12:40:01;;;;;;;7.72;2.83;;;22.80;42.00;;;;;;4994915;28;20029;-70
2022/04/14 12:42:32;;;;;;;6.13;2.58;;;22.60;42.20;;;;;;4972099;28;20607;-70
2022/04/14 12:45:08;;;;;;;7.60;2.90;;;22.50;42.70;;;;;;4982533;28;20351;-70
2022/04/14 12:47:35;;;;;;;6.93;3.20;;;22.70;42.70;;;;;;4997142;28;20024;-70
2022/04/14 12:50:02;;;;;;;6.03;2.78;;;22.80;42.40;;;;;;4996845;28;20057;-71
2022/04/14 12:52:28;;;;;;;8.93;2.80;;;22.60;42.50;;;;;;4991351;28;20465;-71
2022/04/14 12:54:54;;;;;;;5.43;2.88;;;22.60;42.40;;;;;;4984631;28;20061;-73